createdAt,value
2017-06-05T00:00:20.382Z,78.78
2017-06-05T00:01:20.961Z,78.97
2017-06-05T00:02:21.538Z,78.49
2017-06-05T00:03:22.114Z,78.11
2017-06-05T00:04:22.690Z,78.20
2017-06-05T00:05:23.265Z,78.20
2017-06-05T00:06:23.841Z,78.05
2017-06-05T00:07:24.431Z,77.53
2017-06-05T00:08:25.008Z,77.30
2017-06-05T00:09:25.584Z,79.22
2017-06-05T00:10:26.161Z,78.87
2017-06-05T00:11:26.740Z,78.78
2017-06-05T00:12:27.318Z,78.49
2017-06-05T00:13:27.899Z,78.01
2017-06-05T00:14:28.488Z,77.72
2017-06-05T00:15:29.066Z,77.44
2017-06-05T00:16:29.642Z,78.01
2017-06-05T00:17:30.219Z,77.53
2017-06-05T00:18:30.794Z,78.58
2017-06-05T00:19:31.373Z,78.01
2017-06-05T00:20:31.949Z,78.01
2017-06-05T00:21:32.530Z,78.01
2017-06-05T00:22:33.120Z,77.34
2017-06-05T00:23:33.696Z,77.34
2017-06-05T00:24:34.275Z,77.63
2017-06-05T00:25:34.852Z,77.53
2017-06-05T00:26:35.428Z,78.01
2017-06-05T00:27:36.004Z,78.11
2017-06-05T00:28:36.582Z,78.78
2017-06-05T00:29:37.160Z,78.36
2017-06-05T00:30:37.737Z,80.17
2017-06-05T00:31:38.315Z,78.49
2017-06-05T00:32:38.892Z,79.12
2017-06-05T00:33:39.467Z,79.16
2017-06-05T00:34:40.045Z,79.44
2017-06-05T00:35:40.621Z,78.87
2017-06-05T00:36:41.200Z,78.26
2017-06-05T00:37:41.777Z,79.44
2017-06-05T00:38:42.357Z,78.83
2017-06-05T00:39:42.931Z,78.87
2017-06-05T00:40:43.507Z,78.45
2017-06-05T00:41:44.084Z,79.64
2017-06-05T00:42:44.660Z,78.78
2017-06-05T00:43:45.241Z,78.24
2017-06-05T00:44:45.815Z,76.96
2017-06-05T00:45:46.395Z,77.53
2017-06-05T00:46:46.972Z,76.96
2017-06-05T00:47:47.548Z,77.40
2017-06-05T00:48:48.126Z,79.35
2017-06-05T00:49:48.702Z,77.92
2017-06-05T00:50:49.281Z,77.34
2017-06-05T00:51:49.857Z,76.77
2017-06-05T00:52:50.436Z,77.44
2017-06-05T00:53:51.027Z,77.06
2017-06-05T00:54:51.604Z,77.53
2017-06-05T00:55:52.181Z,78.39
2017-06-05T00:56:52.758Z,78.78
2017-06-05T00:57:53.351Z,77.25
2017-06-05T00:58:53.942Z,78.20
2017-06-05T00:59:54.520Z,78.55
2017-06-05T01:00:55.096Z,79.50
2017-06-05T01:01:55.673Z,78.97
2017-06-05T01:02:56.248Z,77.97
2017-06-05T01:03:56.824Z,77.36
2017-06-05T01:04:57.402Z,79.08
2017-06-05T01:05:57.979Z,80.27
2017-06-05T01:06:58.558Z,78.64
2017-06-05T01:07:59.135Z,78.16
2017-06-05T01:08:59.711Z,78.16
2017-06-05T01:10:00.289Z,78.83
2017-06-05T01:11:00.878Z,79.41
2017-06-05T01:12:01.455Z,79.31
2017-06-05T01:13:02.030Z,79.79
2017-06-05T01:14:02.608Z,79.56
2017-06-05T01:15:03.185Z,80.36
2017-06-05T01:16:03.794Z,80.22
2017-06-05T01:17:04.344Z,80.41
2017-06-05T01:18:04.914Z,80.22
2017-06-05T01:19:05.492Z,79.75
2017-06-05T01:20:06.067Z,79.27
2017-06-05T01:21:06.643Z,80.32
2017-06-05T01:22:07.222Z,80.46
2017-06-05T01:23:07.799Z,79.60
2017-06-05T01:24:08.378Z,79.22
2017-06-05T01:25:08.953Z,79.02
2017-06-05T01:26:09.530Z,79.50
2017-06-05T01:27:10.106Z,79.50
2017-06-05T01:28:10.682Z,79.31
2017-06-05T01:29:11.258Z,78.83
2017-06-05T01:30:11.836Z,79.27
2017-06-05T01:31:12.419Z,79.75
2017-06-05T01:32:12.990Z,80.22
2017-06-05T01:33:13.568Z,81.09
2017-06-05T01:34:14.144Z,80.22
2017-06-05T01:35:14.721Z,80.46
2017-06-05T01:36:15.300Z,79.41
2017-06-05T01:37:15.879Z,79.02
2017-06-05T01:38:16.455Z,79.27
2017-06-05T01:39:17.033Z,79.56
2017-06-05T01:40:17.606Z,79.98
2017-06-05T01:41:18.181Z,80.04
2017-06-05T01:42:18.758Z,80.32
2017-06-05T01:43:19.336Z,80.32
2017-06-05T01:44:19.914Z,80.47
2017-06-05T01:45:20.490Z,80.32
2017-06-05T01:46:21.065Z,79.80
2017-06-05T01:47:21.642Z,81.04
2017-06-05T01:48:22.231Z,81.52
2017-06-05T01:49:22.805Z,81.71
2017-06-05T01:50:23.382Z,81.09
2017-06-05T01:51:23.957Z,81.47
2017-06-05T01:52:24.534Z,81.76
2017-06-05T01:53:25.109Z,81.52
2017-06-05T01:54:25.687Z,81.71
2017-06-05T01:55:26.277Z,82.72
2017-06-05T01:56:26.852Z,83.43
2017-06-05T01:57:27.428Z,81.56
2017-06-05T01:58:28.007Z,80.41
2017-06-05T01:59:28.581Z,80.41
2017-06-05T02:00:29.159Z,81.09
2017-06-05T02:01:29.735Z,81.43
2017-06-05T02:02:30.310Z,81.90
2017-06-05T02:03:30.918Z,81.47
2017-06-05T02:04:31.463Z,81.86
2017-06-05T02:05:32.052Z,83.58
2017-06-05T02:06:32.627Z,82.76
2017-06-05T02:07:33.204Z,81.62
2017-06-05T02:08:33.781Z,81.37
2017-06-05T02:09:34.355Z,80.76
2017-06-05T02:10:34.945Z,81.14
2017-06-05T02:11:35.535Z,80.76
2017-06-05T02:12:36.110Z,81.14
2017-06-05T02:13:36.686Z,81.58
2017-06-05T02:14:37.261Z,81.96
2017-06-05T02:15:37.838Z,81.10
2017-06-05T02:16:38.415Z,82.00
2017-06-05T02:17:38.992Z,81.24
2017-06-05T02:18:39.568Z,80.99
2017-06-05T02:19:40.143Z,80.61
2017-06-05T02:20:40.718Z,80.41
2017-06-05T02:21:41.298Z,80.22
2017-06-05T02:22:41.869Z,81.14
2017-06-05T02:23:42.460Z,81.90
2017-06-05T02:24:43.034Z,81.71
2017-06-05T02:25:43.610Z,80.90
2017-06-05T02:26:44.201Z,81.62
2017-06-05T02:27:44.809Z,81.90
2017-06-05T02:28:45.366Z,81.71
2017-06-05T02:29:45.955Z,81.90
2017-06-05T02:30:46.532Z,82.76
2017-06-05T02:31:47.108Z,82.09
2017-06-05T02:32:47.684Z,82.76
2017-06-05T02:33:48.259Z,83.58
2017-06-05T02:34:48.834Z,84.49
2017-06-05T02:35:49.411Z,84.53
2017-06-05T02:36:49.991Z,84.06
2017-06-05T02:37:50.565Z,84.72
2017-06-05T02:38:51.140Z,83.62
2017-06-05T02:39:51.716Z,82.72
2017-06-05T02:40:52.291Z,82.86
2017-06-05T02:41:52.867Z,82.95
2017-06-05T02:42:53.442Z,81.24
2017-06-05T02:43:54.017Z,80.76
2017-06-05T02:44:54.595Z,81.04
2017-06-05T02:45:55.170Z,81.71
2017-06-05T02:46:55.746Z,81.62
2017-06-05T02:47:56.337Z,81.33
2017-06-05T02:48:56.912Z,81.71
2017-06-05T02:49:57.489Z,80.66
2017-06-05T02:50:58.064Z,81.10
2017-06-05T02:51:58.640Z,81.77
2017-06-05T02:52:59.216Z,81.86
2017-06-05T02:53:59.792Z,82.43
2017-06-05T02:55:00.369Z,81.90
2017-06-05T02:56:00.943Z,82.53
2017-06-05T02:57:01.520Z,82.57
2017-06-05T02:58:02.094Z,81.90
2017-06-05T02:59:02.670Z,81.52
2017-06-05T03:00:03.245Z,81.71
2017-06-05T03:01:03.821Z,81.33
2017-06-05T03:02:04.399Z,81.43
2017-06-05T03:03:04.981Z,81.24
2017-06-05T03:04:05.552Z,80.85
2017-06-05T03:05:06.127Z,82.00
2017-06-05T03:06:06.702Z,80.95
2017-06-05T03:07:07.276Z,81.24
2017-06-05T03:08:07.851Z,82.53
2017-06-05T03:09:08.426Z,82.72
2017-06-05T03:10:09.001Z,83.48
2017-06-05T03:11:09.578Z,82.86
2017-06-05T03:12:10.156Z,81.71
2017-06-05T03:13:10.735Z,81.29
2017-06-05T03:14:11.311Z,81.58
2017-06-05T03:15:11.887Z,81.96
2017-06-05T03:16:12.463Z,82.00
2017-06-05T03:17:13.040Z,82.09
2017-06-05T03:18:13.617Z,82.76
2017-06-05T03:19:14.207Z,81.90
2017-06-05T03:20:14.783Z,81.62
2017-06-05T03:21:15.362Z,82.19
2017-06-05T03:22:15.937Z,81.66
2017-06-05T03:23:16.512Z,80.57
2017-06-05T03:24:17.089Z,81.24
2017-06-05T03:25:17.666Z,81.24
2017-06-05T03:26:18.245Z,81.43
2017-06-05T03:27:18.822Z,81.81
2017-06-05T03:28:19.398Z,81.29
2017-06-05T03:29:19.977Z,81.29
2017-06-05T03:30:20.552Z,82.06
2017-06-05T03:31:21.140Z,81.86
2017-06-05T03:32:21.715Z,82.48
2017-06-05T03:33:22.291Z,82.06
2017-06-05T03:34:22.868Z,82.06
2017-06-05T03:35:23.458Z,82.53
2017-06-05T03:36:24.035Z,82.72
2017-06-05T03:37:24.617Z,82.06
2017-06-05T03:38:25.191Z,82.57
2017-06-05T03:39:25.767Z,82.76
2017-06-05T03:40:26.343Z,81.43
2017-06-05T03:41:26.921Z,81.33
2017-06-05T03:42:27.502Z,80.95
2017-06-05T03:43:28.076Z,80.66
2017-06-05T03:44:28.654Z,81.24
2017-06-05T03:45:29.230Z,81.48
2017-06-05T03:46:29.808Z,81.29
2017-06-05T03:47:30.386Z,82.72
2017-06-05T03:48:30.962Z,82.43
2017-06-05T03:49:31.537Z,82.63
2017-06-05T03:50:32.114Z,82.53
2017-06-05T03:51:32.690Z,82.82
2017-06-05T03:52:33.269Z,81.86
2017-06-05T03:53:33.845Z,82.06
2017-06-05T03:54:34.423Z,82.38
2017-06-05T03:55:35.000Z,82.67
2017-06-05T03:56:35.575Z,82.19
2017-06-05T03:57:36.153Z,82.09
2017-06-05T03:58:36.730Z,82.76
2017-06-05T03:59:37.310Z,81.90
2017-06-05T04:00:37.886Z,81.90
2017-06-05T04:01:38.463Z,81.33
2017-06-05T04:02:39.043Z,81.33
2017-06-05T04:03:39.619Z,82.06
2017-06-05T04:04:40.198Z,82.57
2017-06-05T04:05:40.776Z,82.09
2017-06-05T04:06:41.355Z,82.00
2017-06-05T04:07:41.935Z,81.90
2017-06-05T04:08:42.512Z,81.71
2017-06-05T04:09:43.091Z,81.62
2017-06-05T04:10:43.679Z,81.52
2017-06-05T04:11:44.257Z,82.00
2017-06-05T04:12:44.835Z,82.76
2017-06-05T04:13:45.415Z,82.48
2017-06-05T04:14:45.993Z,82.86
2017-06-05T04:15:46.584Z,83.72
2017-06-05T04:16:47.161Z,82.76
2017-06-05T04:17:47.740Z,82.67
2017-06-05T04:18:48.317Z,83.05
2017-06-05T04:19:48.896Z,83.24
2017-06-05T04:20:49.475Z,83.62
2017-06-05T04:21:50.052Z,83.81
2017-06-05T04:22:50.632Z,83.87
2017-06-05T04:23:51.210Z,84.58
2017-06-05T04:24:51.790Z,84.29
2017-06-05T04:25:52.371Z,82.90
2017-06-05T04:26:52.949Z,82.81
2017-06-05T04:27:53.528Z,82.52
2017-06-05T04:28:54.106Z,82.18
2017-06-05T04:29:54.684Z,81.27
2017-06-05T04:30:55.265Z,81.66
2017-06-05T04:31:55.844Z,82.61
2017-06-05T04:32:56.424Z,81.95
2017-06-05T04:33:57.015Z,81.56
2017-06-05T04:34:57.607Z,81.85
2017-06-05T04:35:58.188Z,82.76
2017-06-05T04:36:58.766Z,82.42
2017-06-05T04:37:59.346Z,81.56
2017-06-05T04:38:59.925Z,81.37
2017-06-05T04:40:00.504Z,81.37
2017-06-05T04:41:01.085Z,82.14
2017-06-05T04:42:01.664Z,82.38
2017-06-05T04:43:02.243Z,82.81
2017-06-05T04:44:02.824Z,83.00
2017-06-05T04:45:03.403Z,82.86
2017-06-05T04:46:03.981Z,82.90
2017-06-05T04:47:04.563Z,82.61
2017-06-05T04:48:05.141Z,81.56
2017-06-05T04:49:05.720Z,82.14
2017-06-05T04:50:06.301Z,81.70
2017-06-05T04:51:06.879Z,82.18
2017-06-05T04:52:07.461Z,81.70
2017-06-05T04:53:08.037Z,82.52
2017-06-05T04:54:08.616Z,82.08
2017-06-05T04:55:09.197Z,82.90
2017-06-05T04:56:09.774Z,83.76
2017-06-05T04:57:10.353Z,83.09
2017-06-05T04:58:10.934Z,82.90
2017-06-05T04:59:11.513Z,84.43
2017-06-05T05:00:12.090Z,83.38
2017-06-05T05:01:12.671Z,82.81
2017-06-05T05:02:13.252Z,82.90
2017-06-05T05:03:13.832Z,82.61
2017-06-05T05:04:14.412Z,83.38
2017-06-05T05:05:15.006Z,83.28
2017-06-05T05:06:15.586Z,83.04
2017-06-05T05:07:16.180Z,82.46
2017-06-05T05:08:16.761Z,82.90
2017-06-05T05:09:17.343Z,82.75
2017-06-05T05:10:17.918Z,82.94
2017-06-05T05:11:18.500Z,83.61
2017-06-05T05:12:19.079Z,83.61
2017-06-05T05:13:19.659Z,83.51
2017-06-05T05:14:20.240Z,83.67
2017-06-05T05:15:20.820Z,83.51
2017-06-05T05:16:21.399Z,83.13
2017-06-05T05:17:21.981Z,82.94
2017-06-05T05:18:22.560Z,84.05
2017-06-05T05:19:23.139Z,84.72
2017-06-05T05:20:23.733Z,84.72
2017-06-05T05:21:24.313Z,84.52
2017-06-05T05:22:24.895Z,85.00
2017-06-05T05:23:25.475Z,87.01
2017-06-05T05:24:26.063Z,85.24
2017-06-05T05:25:26.634Z,83.61
2017-06-05T05:26:27.215Z,83.13
2017-06-05T05:27:27.794Z,83.04
2017-06-05T05:28:28.373Z,83.80
2017-06-05T05:29:28.954Z,83.13
2017-06-05T05:30:29.534Z,83.70
2017-06-05T05:31:30.114Z,82.46
2017-06-05T05:32:30.695Z,83.70
2017-06-05T05:33:31.274Z,83.61
2017-06-05T05:34:31.855Z,83.80
2017-06-05T05:35:32.433Z,83.61
2017-06-05T05:36:33.014Z,84.85
2017-06-05T05:37:33.597Z,83.94
2017-06-05T05:38:34.176Z,83.61
2017-06-05T05:39:34.756Z,85.05
2017-06-05T05:40:35.338Z,84.85
2017-06-05T05:41:35.918Z,84.32
2017-06-05T05:42:36.496Z,82.41
2017-06-05T05:43:37.076Z,82.22
2017-06-05T05:44:37.656Z,82.79
2017-06-05T05:45:38.236Z,83.27
2017-06-05T05:46:38.815Z,84.66
2017-06-05T05:47:39.395Z,84.85
2017-06-05T05:48:39.975Z,85.81
2017-06-05T05:49:40.554Z,86.57
2017-06-05T05:50:41.133Z,86.10
2017-06-05T05:51:41.715Z,86.86
2017-06-05T05:52:42.294Z,85.85
2017-06-05T05:53:42.874Z,86.38
2017-06-05T05:54:43.455Z,86.00
2017-06-05T05:55:44.035Z,86.76
2017-06-05T05:56:44.616Z,86.57
2017-06-05T05:57:45.195Z,84.80
2017-06-05T05:58:45.776Z,83.79
2017-06-05T05:59:46.357Z,82.64
2017-06-05T06:00:46.939Z,80.77
2017-06-05T06:01:47.518Z,80.24
2017-06-05T06:02:48.100Z,79.66
2017-06-05T06:03:48.677Z,79.14
2017-06-05T06:04:49.258Z,78.13
2017-06-05T06:05:49.840Z,76.79
2017-06-05T06:06:50.434Z,77.46
2017-06-05T06:07:51.014Z,76.12
2017-06-05T06:08:51.594Z,76.21
2017-06-05T06:09:52.172Z,75.29
2017-06-05T06:10:52.752Z,75.10
2017-06-05T06:11:53.334Z,74.33
2017-06-05T06:12:53.914Z,75.96
2017-06-05T06:13:54.495Z,74.68
2017-06-05T06:14:55.079Z,74.62
2017-06-05T06:15:55.658Z,74.62
2017-06-05T06:16:56.238Z,75.68
2017-06-05T06:17:56.820Z,76.06
2017-06-05T06:18:57.401Z,76.15
2017-06-05T06:19:57.982Z,76.92
2017-06-05T06:20:58.564Z,76.06
2017-06-05T06:21:59.144Z,76.82
2017-06-05T06:22:59.726Z,76.82
2017-06-05T06:24:00.307Z,76.02
2017-06-05T06:25:00.889Z,77.59
2017-06-05T06:26:01.472Z,77.65
2017-06-05T06:27:02.066Z,77.11
2017-06-05T06:28:02.634Z,75.16
2017-06-05T06:29:03.216Z,70.95
2017-06-05T06:30:03.796Z,68.94
2017-06-05T06:31:04.379Z,66.61
2017-06-05T06:32:04.974Z,67.50
2017-06-05T06:33:05.567Z,66.64
2017-06-05T06:34:06.148Z,67.11
2017-06-05T06:35:06.729Z,66.06
2017-06-05T06:36:07.310Z,67.41
2017-06-05T06:37:07.891Z,66.45
2017-06-05T06:38:08.471Z,67.60
2017-06-05T06:39:09.054Z,67.11
2017-06-05T06:40:09.634Z,67.15
2017-06-05T06:41:10.215Z,67.54
2017-06-05T06:42:10.794Z,66.38
2017-06-05T06:43:11.376Z,65.81
2017-06-05T06:44:11.962Z,64.47
2017-06-05T06:45:12.541Z,64.72
2017-06-05T06:46:13.122Z,67.15
2017-06-05T06:47:13.705Z,66.09
2017-06-05T06:48:14.285Z,65.81
2017-06-05T06:49:14.867Z,67.15
2017-06-05T06:50:15.449Z,66.58
2017-06-05T06:51:16.032Z,66.48
2017-06-05T06:52:16.612Z,66.96
2017-06-05T06:53:17.196Z,67.47
2017-06-05T06:54:17.777Z,66.71
2017-06-05T06:55:18.359Z,66.22
2017-06-05T06:56:18.940Z,64.85
2017-06-05T06:57:19.523Z,65.33
2017-06-05T06:58:20.104Z,65.05
2017-06-05T06:59:20.686Z,65.52
2017-06-05T07:00:21.269Z,64.56
2017-06-05T07:01:21.851Z,64.28
2017-06-05T07:02:22.434Z,64.09
2017-06-05T07:03:23.013Z,63.99
2017-06-05T07:04:23.596Z,63.89
2017-06-05T07:05:24.182Z,63.22
2017-06-05T07:06:24.759Z,63.96
2017-06-05T07:07:25.345Z,64.47
2017-06-05T07:08:25.921Z,64.37
2017-06-05T07:09:26.504Z,64.47
2017-06-05T07:10:27.099Z,64.85
2017-06-05T07:11:27.680Z,64.28
2017-06-05T07:12:28.262Z,64.76
2017-06-05T07:13:28.845Z,64.66
2017-06-05T07:14:29.424Z,63.99
2017-06-05T07:15:30.005Z,65.17
2017-06-05T07:16:30.592Z,64.31
2017-06-05T07:17:31.166Z,65.11
2017-06-05T07:18:31.749Z,65.26
2017-06-05T07:19:32.331Z,64.95
2017-06-05T07:20:32.913Z,65.52
2017-06-05T07:21:33.497Z,65.26
2017-06-05T07:22:34.077Z,64.47
2017-06-05T07:23:34.658Z,64.89
2017-06-05T07:24:35.242Z,64.59
2017-06-05T07:25:35.824Z,64.59
2017-06-05T07:26:36.405Z,65.68
2017-06-05T07:27:36.992Z,64.40
2017-06-05T07:28:37.569Z,65.08
2017-06-05T07:29:38.165Z,65.97
2017-06-05T07:30:38.748Z,65.11
2017-06-05T07:31:39.330Z,64.82
2017-06-05T07:32:39.928Z,65.23
2017-06-05T07:33:40.524Z,64.37
2017-06-05T07:34:41.106Z,64.37
2017-06-05T07:35:41.691Z,64.53
2017-06-05T07:36:42.285Z,65.23
2017-06-05T07:37:42.866Z,64.28
2017-06-05T07:38:43.448Z,62.84
2017-06-05T07:39:44.032Z,63.89
2017-06-05T07:40:44.613Z,63.60
2017-06-05T07:41:45.194Z,64.56
2017-06-05T07:42:45.776Z,63.35
2017-06-05T07:43:46.360Z,63.06
2017-06-05T07:44:46.961Z,62.10
2017-06-05T07:45:47.539Z,61.91
2017-06-05T07:46:48.137Z,62.29
2017-06-05T07:47:48.719Z,61.78
2017-06-05T07:48:49.315Z,62.87
2017-06-05T07:49:49.897Z,61.91
2017-06-05T07:50:50.483Z,60.75
2017-06-05T07:51:51.061Z,60.75
2017-06-05T07:52:51.643Z,60.60
2017-06-05T07:53:52.226Z,59.51
2017-06-05T07:54:52.809Z,60.57
2017-06-05T07:55:53.405Z,60.40
2017-06-05T07:56:53.989Z,58.10
2017-06-05T07:57:54.585Z,57.97
2017-06-05T07:58:55.180Z,59.25
2017-06-05T07:59:55.761Z,58.17
2017-06-05T08:00:56.344Z,59.12
2017-06-05T08:01:56.928Z,59.80
2017-06-05T08:02:57.509Z,59.06
2017-06-05T08:03:58.093Z,57.33
2017-06-05T08:04:58.674Z,55.67
2017-06-05T08:05:59.256Z,56.18
2017-06-05T08:06:59.844Z,57.23
2017-06-05T08:08:00.421Z,57.84
2017-06-05T08:09:01.004Z,56.78
2017-06-05T08:10:01.598Z,55.94
2017-06-05T08:11:02.182Z,54.77
2017-06-05T08:12:02.764Z,54.79
2017-06-05T08:13:03.348Z,54.93
2017-06-05T08:14:03.947Z,56.73
2017-06-05T08:15:04.527Z,57.23
2017-06-05T08:16:05.110Z,56.76
2017-06-05T08:17:05.694Z,56.33
2017-06-05T08:18:06.279Z,55.08
2017-06-05T08:19:06.858Z,54.60
2017-06-05T08:20:07.441Z,54.82
2017-06-05T08:21:08.026Z,54.63
2017-06-05T08:22:08.609Z,54.82
2017-06-05T08:23:09.191Z,54.69
2017-06-05T08:24:09.774Z,55.20
2017-06-05T08:25:10.359Z,54.63
2017-06-05T08:26:10.941Z,54.24
2017-06-05T08:27:11.538Z,54.14
2017-06-05T08:28:12.122Z,53.57
2017-06-05T08:29:12.707Z,52.99
2017-06-05T08:30:13.292Z,52.22
2017-06-05T08:31:13.888Z,54.53
2017-06-05T08:32:14.473Z,55.30
2017-06-05T08:33:15.058Z,54.91
2017-06-05T08:34:15.655Z,53.76
2017-06-05T08:35:16.237Z,52.70
2017-06-05T08:36:16.821Z,53.66
2017-06-05T08:37:17.405Z,53.28
2017-06-05T08:38:17.987Z,53.76
2017-06-05T08:39:18.573Z,53.45
2017-06-05T08:40:19.157Z,52.68
2017-06-05T08:41:19.740Z,53.74
2017-06-05T08:42:20.337Z,53.45
2017-06-05T08:43:20.922Z,54.02
2017-06-05T08:44:21.506Z,52.99
2017-06-05T08:45:22.089Z,52.29
2017-06-05T08:46:22.674Z,51.93
2017-06-05T08:47:23.256Z,53.38
2017-06-05T08:48:23.841Z,51.81
2017-06-05T08:49:24.424Z,51.98
2017-06-05T08:50:25.008Z,53.74
2017-06-05T08:51:25.594Z,52.61
2017-06-05T08:52:26.176Z,52.80
2017-06-05T08:53:26.760Z,52.12
2017-06-05T08:54:27.347Z,51.33
2017-06-05T08:55:27.929Z,50.85
2017-06-05T08:56:28.512Z,50.30
2017-06-05T08:57:29.107Z,51.93
2017-06-05T08:58:29.692Z,53.09
2017-06-05T08:59:30.276Z,52.68
2017-06-05T09:00:30.861Z,52.99
2017-06-05T09:01:31.443Z,53.66
2017-06-05T09:02:32.029Z,51.96
2017-06-05T09:03:32.613Z,52.27
2017-06-05T09:04:33.196Z,52.37
2017-06-05T09:05:33.780Z,51.62
2017-06-05T09:06:34.365Z,50.76
2017-06-05T09:07:34.949Z,52.01
2017-06-05T09:08:35.531Z,50.83
2017-06-05T09:09:36.128Z,51.31
2017-06-05T09:10:36.713Z,51.74
2017-06-05T09:11:37.296Z,53.02
2017-06-05T09:12:37.880Z,52.15
2017-06-05T09:13:38.464Z,51.50
2017-06-05T09:14:39.049Z,52.01
2017-06-05T09:15:39.635Z,49.99
2017-06-05T09:16:40.218Z,48.93
2017-06-05T09:17:40.802Z,49.74
2017-06-05T09:18:41.386Z,52.08
2017-06-05T09:19:41.970Z,51.41
2017-06-05T09:20:42.554Z,52.01
2017-06-05T09:21:43.138Z,50.98
2017-06-05T09:22:43.722Z,49.70
2017-06-05T09:23:44.308Z,49.60
2017-06-05T09:24:44.894Z,50.32
2017-06-05T09:25:45.478Z,51.09
2017-06-05T09:26:46.063Z,50.95
2017-06-05T09:27:46.648Z,50.47
2017-06-05T09:28:47.232Z,50.18
2017-06-05T09:29:47.830Z,49.38
2017-06-05T09:30:48.415Z,49.96
2017-06-05T09:31:49.000Z,50.54
2017-06-05T09:32:49.584Z,49.29
2017-06-05T09:33:50.169Z,50.27
2017-06-05T09:34:50.753Z,49.34
2017-06-05T09:35:51.337Z,49.15
2017-06-05T09:36:51.922Z,48.83
2017-06-05T09:37:52.509Z,49.07
2017-06-05T09:38:53.106Z,49.38
2017-06-05T09:39:53.686Z,50.18
2017-06-05T09:40:54.269Z,49.65
2017-06-05T09:41:54.854Z,48.18
2017-06-05T09:42:55.439Z,48.38
2017-06-05T09:43:56.023Z,49.94
2017-06-05T09:44:56.607Z,47.63
2017-06-05T09:45:57.191Z,48.44
2017-06-05T09:46:57.775Z,50.40
2017-06-05T09:47:58.358Z,48.54
2017-06-05T09:48:58.943Z,48.57
2017-06-05T09:49:59.530Z,48.88
2017-06-05T09:51:00.115Z,46.47
2017-06-05T09:52:00.698Z,46.45
2017-06-05T09:53:01.283Z,47.34
2017-06-05T09:54:01.869Z,47.05
2017-06-05T09:55:02.452Z,46.76
2017-06-05T09:56:03.036Z,46.81
2017-06-05T09:57:03.623Z,47.99
2017-06-05T09:58:04.207Z,47.34
2017-06-05T09:59:04.790Z,47.82
2017-06-05T10:00:05.378Z,47.34
2017-06-05T10:01:05.977Z,46.55
2017-06-05T10:02:06.563Z,47.65
2017-06-05T10:03:07.159Z,47.58
2017-06-05T10:04:07.744Z,46.31
2017-06-05T10:05:08.346Z,47.10
2017-06-05T10:06:08.913Z,47.31
2017-06-05T10:07:09.499Z,48.23
2017-06-05T10:08:10.081Z,47.87
2017-06-05T10:09:10.665Z,44.78
2017-06-05T10:10:11.252Z,44.49
2017-06-05T10:11:11.836Z,45.24
2017-06-05T10:12:12.421Z,44.56
2017-06-05T10:13:13.020Z,44.42
2017-06-05T10:14:13.606Z,45.70
2017-06-05T10:15:14.205Z,45.97
2017-06-05T10:16:14.790Z,46.30
2017-06-05T10:17:15.376Z,45.92
2017-06-05T10:18:15.965Z,46.03
2017-06-05T10:19:16.550Z,45.07
2017-06-05T10:20:17.135Z,45.26
2017-06-05T10:21:17.721Z,44.49
2017-06-05T10:22:18.306Z,46.47
2017-06-05T10:23:18.892Z,46.01
2017-06-05T10:24:19.479Z,46.40
2017-06-05T10:25:20.063Z,46.30
2017-06-05T10:26:20.649Z,45.55
2017-06-05T10:27:21.248Z,46.15
2017-06-05T10:28:21.832Z,45.26
2017-06-05T10:29:22.418Z,45.07
2017-06-05T10:30:23.006Z,44.32
2017-06-05T10:31:23.593Z,42.97
2017-06-05T10:32:24.178Z,41.40
2017-06-05T10:33:24.767Z,43.21
2017-06-05T10:34:25.365Z,44.68
2017-06-05T10:35:25.950Z,43.52
2017-06-05T10:36:26.537Z,42.68
2017-06-05T10:37:27.122Z,43.45
2017-06-05T10:38:27.706Z,42.75
2017-06-05T10:39:28.293Z,43.14
2017-06-05T10:40:28.883Z,42.36
2017-06-05T10:41:29.465Z,42.93
2017-06-05T10:42:30.050Z,43.52
2017-06-05T10:43:30.638Z,42.08
2017-06-05T10:44:31.223Z,44.39
2017-06-05T10:45:31.810Z,42.56
2017-06-05T10:46:32.397Z,43.72
2017-06-05T10:47:32.982Z,44.03
2017-06-05T10:48:33.568Z,42.56
2017-06-05T10:49:34.155Z,43.04
2017-06-05T10:50:34.740Z,42.77
2017-06-05T10:51:35.326Z,40.82
2017-06-05T10:52:35.915Z,41.46
2017-06-05T10:53:36.500Z,41.94
2017-06-05T10:54:37.086Z,42.83
2017-06-05T10:55:37.674Z,42.05
2017-06-05T10:56:38.258Z,43.24
2017-06-05T10:57:38.857Z,42.94
2017-06-05T10:58:39.442Z,42.23
2017-06-05T10:59:40.040Z,42.90
2017-06-05T11:00:40.627Z,42.11
2017-06-05T11:01:41.212Z,42.03
2017-06-05T11:02:41.798Z,43.29
2017-06-05T11:03:42.383Z,44.85
2017-06-05T11:04:42.968Z,42.93
2017-06-05T11:05:43.553Z,42.42
2017-06-05T11:06:44.139Z,43.67
2017-06-05T11:07:44.725Z,43.58
2017-06-05T11:08:45.311Z,43.00
2017-06-05T11:09:45.899Z,42.61
2017-06-05T11:10:46.483Z,42.93
2017-06-05T11:11:47.069Z,42.15
2017-06-05T11:12:47.653Z,41.57
2017-06-05T11:13:48.238Z,41.30
2017-06-05T11:14:48.826Z,41.48
2017-06-05T11:15:49.410Z,41.30
2017-06-05T11:16:50.008Z,41.05
2017-06-05T11:17:50.594Z,39.43
2017-06-05T11:18:51.181Z,40.11
2017-06-05T11:19:51.765Z,38.56
2017-06-05T11:20:52.349Z,39.64
2017-06-05T11:21:52.937Z,38.48
2017-06-05T11:22:53.522Z,38.58
2017-06-05T11:23:54.126Z,38.39
2017-06-05T11:24:54.708Z,37.40
2017-06-05T11:25:55.295Z,39.29
2017-06-05T11:26:55.882Z,40.47
2017-06-05T11:27:56.467Z,39.92
2017-06-05T11:28:57.055Z,38.39
2017-06-05T11:29:57.642Z,38.21
2017-06-05T11:30:58.229Z,37.60
2017-06-05T11:31:58.815Z,38.50
2017-06-05T11:32:59.415Z,37.34
2017-06-05T11:33:59.999Z,37.42
2017-06-05T11:35:00.585Z,38.25
2017-06-05T11:36:01.173Z,38.23
2017-06-05T11:37:01.758Z,38.83
2017-06-05T11:38:02.344Z,38.33
2017-06-05T11:39:02.930Z,38.53
2017-06-05T11:40:03.515Z,39.01
2017-06-05T11:41:04.099Z,38.41
2017-06-05T11:42:04.685Z,38.41
2017-06-05T11:43:05.270Z,39.61
2017-06-05T11:44:05.854Z,38.54
2017-06-05T11:45:06.438Z,38.43
2017-06-05T11:46:07.026Z,39.80
2017-06-05T11:47:07.612Z,38.46
2017-06-05T11:48:08.197Z,37.95
2017-06-05T11:49:08.782Z,38.91
2017-06-05T11:50:09.368Z,39.01
2017-06-05T11:51:09.953Z,38.41
2017-06-05T11:52:10.538Z,38.81
2017-06-05T11:53:11.125Z,39.61
2017-06-05T11:54:11.706Z,38.87
2017-06-05T11:55:12.292Z,38.31
2017-06-05T11:56:12.875Z,37.02
2017-06-05T11:57:13.459Z,38.43
2017-06-05T11:58:14.044Z,38.79
2017-06-05T11:59:14.630Z,39.64
2017-06-05T12:00:15.213Z,39.84
2017-06-05T12:01:15.796Z,40.34
2017-06-05T12:02:16.382Z,40.07
2017-06-05T12:03:16.965Z,38.54
2017-06-05T12:04:17.552Z,39.41
2017-06-05T12:05:18.135Z,38.54
2017-06-05T12:06:18.717Z,38.06
2017-06-05T12:07:19.301Z,39.49
2017-06-05T12:08:19.884Z,38.87
2017-06-05T12:09:20.470Z,39.84
2017-06-05T12:10:21.054Z,39.95
2017-06-05T12:11:21.638Z,40.72
2017-06-05T12:12:22.222Z,39.78
2017-06-05T12:13:22.812Z,39.90
2017-06-05T12:14:23.390Z,39.41
2017-06-05T12:15:23.974Z,38.54
2017-06-05T12:16:24.560Z,39.57
2017-06-05T12:17:25.158Z,40.15
2017-06-05T12:18:25.741Z,40.70
2017-06-05T12:19:26.323Z,40.61
2017-06-05T12:20:26.906Z,40.01
2017-06-05T12:21:27.506Z,40.70
2017-06-05T12:22:28.087Z,40.44
2017-06-05T12:23:28.673Z,39.76
2017-06-05T12:24:29.256Z,39.97
2017-06-05T12:25:29.840Z,40.07
2017-06-05T12:26:30.424Z,40.17
2017-06-05T12:27:31.006Z,39.97
2017-06-05T12:28:31.589Z,39.66
2017-06-05T12:29:32.174Z,40.36
2017-06-05T12:30:32.757Z,40.75
2017-06-05T12:31:33.341Z,39.95
2017-06-05T12:32:33.924Z,40.39
2017-06-05T12:33:34.507Z,41.19
2017-06-05T12:34:35.092Z,41.77
2017-06-05T12:35:35.675Z,42.44
2017-06-05T12:36:36.258Z,40.61
2017-06-05T12:37:36.843Z,40.90
2017-06-05T12:38:37.426Z,42.18
2017-06-05T12:39:38.009Z,40.92
2017-06-05T12:40:38.594Z,40.30
2017-06-05T12:41:39.177Z,41.07
2017-06-05T12:42:39.761Z,41.07
2017-06-05T12:43:40.344Z,41.19
2017-06-05T12:44:40.928Z,41.75
2017-06-05T12:45:41.513Z,41.55
2017-06-05T12:46:42.095Z,41.36
2017-06-05T12:47:42.680Z,41.07
2017-06-05T12:48:43.264Z,41.84
2017-06-05T12:49:43.847Z,42.79
2017-06-05T12:50:44.431Z,42.42
2017-06-05T12:51:45.017Z,41.96
2017-06-05T12:52:45.602Z,42.35
2017-06-05T12:53:46.185Z,42.54
2017-06-05T12:54:46.770Z,42.44
2017-06-05T12:55:47.353Z,42.52
2017-06-05T12:56:47.950Z,42.35
2017-06-05T12:57:48.533Z,42.25
2017-06-05T12:58:49.117Z,41.38
2017-06-05T12:59:49.701Z,42.32